Hyalite Weather Station

This weather station provides temperature, wind speed, gust or max wind speed, and wind direction at 9982ft near the summit of Flanders Mountain. This data can be used with temperature and precipitation data from the Shower Falls SNOTEL site. If the data has not been updated recently you can view it directly on datagarrison.com

Elevation
9982ft
Jump to table bottom
Date Time Temperature
deg F
RH, % Wind Speed Wind Gust Wind Direction
01/26/22 03:00 14.6 36 20 32 W - 264
01/26/22 02:00 14.8 35 21 39 W - 266
01/26/22 01:00 14.8 37 21 34 W - 267
01/26/22 00:00 14.3 40 22 38 W - 270
01/25/22 23:00 15.3 37 22 37 W - 267
01/25/22 22:00 14.1 43 22 37 W - 270
01/25/22 21:00 13.6 48 20 35 W - 269
01/25/22 20:00 11.7 84 17 31 W - 264
01/25/22 19:00 8.2 90 18 27 W - 264
01/25/22 18:00 7.1 90 15 27 W - 266
01/25/22 17:00 8.5 90 11 19 W - 249
01/25/22 16:00 9.7 90 11 18 SW - 246
01/25/22 15:00 10.1 90 10 18 SW - 245
01/25/22 14:00 9.8 90 6 12 SW - 238
01/25/22 13:00 7.8 90 4 9 W - 253
01/25/22 12:00 7.2 89 2 5 W - 271
01/25/22 11:00 8.2 90 2 6 W - 284
01/25/22 10:00 8.3 89 3 6 W - 291
01/25/22 09:00 6.9 89 3 8 NW - 302
01/25/22 08:00 6.2 89 4 11 NW - 308
01/25/22 07:00 6.4 89 4 15 NW - 325
01/25/22 06:00 6.2 89 5 16 NW - 329
01/25/22 05:00 6.2 89 4 12 NW - 312
01/25/22 04:00 6.4 89 3 9 NW - 316
01/25/22 03:00 6.4 89 4 12 NW - 332
01/25/22 02:00 5.9 89 5 16 NW - 337
01/25/22 01:00 7.5 89 3 12 NW - 325
01/25/22 00:00 8.3 90 3 11 N - 9
01/24/22 23:00 8.6 90 6 19 NE - 37
01/24/22 22:00 8.4 89 6 19 NE - 54
01/24/22 21:00 9.5 90 7 17 N - 20
01/24/22 20:00 9.8 90 6 14 N - 16
01/24/22 19:00 10.2 90 6 14 NE - 26
01/24/22 18:00 11.1 90 5 10 NW - 325
01/24/22 17:00 11.4 90 5 11 NW - 302
01/24/22 16:00 11.9 90 8 15 W - 269
01/24/22 15:00 12.1 90 10 17 W - 267
01/24/22 14:00 12.0 89 9 18 W - 264
01/24/22 13:00 11.4 88 10 19 W - 280
01/24/22 12:00 13.6 72 13 24 W - 270
01/24/22 11:00 14.6 60 14 34 W - 264
01/24/22 10:00 15.6 46 16 25 W - 256
01/24/22 09:00 15.1 49 15 24 W - 262
01/24/22 08:00 14.2 54 17 32 W - 263
01/24/22 07:00 14.6 54 17 28 W - 260
01/24/22 06:00 15.5 54 20 34 W - 262
01/24/22 05:00 15.7 56 18 26 W - 260
01/24/22 04:00 16.1 57 19 28 W - 260
01/24/22 03:00 16.0 56 15 23 W - 260
01/24/22 02:00 17.2 53 17 31 W - 270